Time;durP1;ratioP1;P1;durP2;ratioP2;P2;SDS_P1;SDS_P2;PMS_P1;PMS_P2;Temp;Humidity;BMP_temperature;BMP_pressure;BME280_temperature;BME280_humidity;BME280_pressure;Samples;Min_cycle;Max_cycle;Signal;HPM_P1;HPM_P2
2021/11/16 00:00:44;;;;;;;20.30;15.30;;;10.00;99.90;;;;;;5020644;28;20225;-88
2021/11/16 00:03:11;;;;;;;20.10;15.02;;;10.00;99.90;;;;;;5016200;28;20673;-89
2021/11/16 00:05:39;;;;;;;22.95;15.98;;;10.00;99.90;;;;;;5013660;28;20195;-88
2021/11/16 00:08:07;;;;;;;19.02;14.48;;;10.00;99.90;;;;;;5011586;28;20199;-88
2021/11/16 00:10:35;;;;;;;22.90;15.80;;;10.00;99.90;;;;;;5018715;28;20231;-88
2021/11/16 00:13:10;;;;;;;23.38;18.35;;;9.90;99.90;;;;;;5023600;28;20207;-89
2021/11/16 00:15:37;;;;;;;19.83;15.82;;;9.90;99.90;;;;;;5017216;28;20240;-86
2021/11/16 00:18:05;;;;;;;23.15;15.20;;;9.90;99.90;;;;;;5016614;28;20196;-88
2021/11/16 00:20:34;;;;;;;22.83;15.95;;;9.90;99.90;;;;;;5020864;28;20207;-88
2021/11/16 00:23:03;;;;;;;21.33;15.20;;;9.90;99.90;;;;;;5011250;28;20201;-87
2021/11/16 00:25:34;;;;;;;27.80;16.65;;;9.90;99.90;;;;;;5017722;28;20217;-93
2021/11/16 00:28:01;;;;;;;24.20;15.82;;;9.90;99.90;;;;;;5022217;28;20632;-89
2021/11/16 00:30:28;;;;;;;23.90;17.50;;;9.90;99.90;;;;;;5020394;28;20226;-89
2021/11/16 00:32:56;;;;;;;24.15;16.65;;;9.90;99.90;;;;;;5015296;28;20625;-90
2021/11/16 00:35:23;;;;;;;22.30;15.57;;;9.90;99.90;;;;;;5020235;28;20197;-89
2021/11/16 00:37:51;;;;;;;23.55;15.38;;;9.90;99.90;;;;;;5021855;28;20627;-90
2021/11/16 00:40:21;;;;;;;23.80;15.52;;;9.90;99.90;;;;;;5018441;28;20202;-89
2021/11/16 00:42:50;;;;;;;20.50;15.68;;;9.90;99.90;;;;;;5017504;28;20230;-91
2021/11/16 00:45:18;;;;;;;23.40;16.42;;;9.80;99.90;;;;;;5015369;28;20283;-90
2021/11/16 00:47:56;;;;;;;23.90;16.17;;;9.90;99.90;;;;;;5028792;28;20586;-90
2021/11/16 00:50:24;;;;;;;22.20;16.05;;;9.80;99.90;;;;;;5022170;28;20202;-90
2021/11/16 00:52:51;;;;;;;22.23;15.25;;;9.90;99.90;;;;;;5025552;28;20280;-89
2021/11/16 00:55:20;;;;;;;23.10;17.02;;;9.80;99.90;;;;;;5015654;28;20230;-89
2021/11/16 00:57:47;;;;;;;25.48;17.35;;;9.90;99.90;;;;;;5019022;28;20986;-89
2021/11/16 01:00:17;;;;;;;25.95;16.65;;;9.80;99.90;;;;;;5013714;28;20295;-89
2021/11/16 01:02:44;;;;;;;24.40;17.33;;;9.90;99.90;;;;;;5011017;28;20728;-90
2021/11/16 01:05:12;;;;;;;21.95;16.85;;;9.80;99.90;;;;;;5017844;28;20233;-90
2021/11/16 01:07:40;;;;;;;23.40;16.83;;;9.80;99.90;;;;;;5013593;28;20202;-89
2021/11/16 01:10:09;;;;;;;24.38;18.20;;;9.90;99.90;;;;;;5014496;28;20566;-89
2021/11/16 01:12:38;;;;;;;24.83;15.82;;;9.80;99.90;;;;;;5022133;28;20742;-89
2021/11/16 01:15:07;;;;;;;26.35;16.15;;;9.90;99.90;;;;;;5011117;28;20221;-90
2021/11/16 01:17:34;;;;;;;21.92;15.70;;;9.80;99.90;;;;;;5011738;28;20292;-89
2021/11/16 01:20:02;;;;;;;23.13;15.27;;;9.90;99.90;;;;;;5017965;28;20201;-91
2021/11/16 01:22:29;;;;;;;23.02;16.38;;;9.90;99.90;;;;;;5019897;28;20216;-89
2021/11/16 01:24:56;;;;;;;26.10;17.55;;;9.90;99.90;;;;;;5018056;28;20761;-89
2021/11/16 01:27:25;;;;;;;23.48;16.00;;;9.90;99.90;;;;;;5019443;28;20261;-91
2021/11/16 01:29:55;;;;;;;23.35;17.30;;;9.90;99.90;;;;;;5014527;28;20197;-90
2021/11/16 01:32:32;;;;;;;24.30;15.03;;;9.80;99.90;;;;;;5017360;28;20226;-90
2021/11/16 01:34:59;;;;;;;21.60;16.20;;;9.80;99.90;;;;;;5024472;28;20525;-90
2021/11/16 01:37:26;;;;;;;22.70;17.13;;;9.80;99.90;;;;;;5020358;28;20201;-89
2021/11/16 01:39:53;;;;;;;23.88;16.02;;;9.80;99.90;;;;;;5023129;28;20194;-90
2021/11/16 01:42:21;;;;;;;28.02;17.48;;;9.80;99.90;;;;;;5021528;28;20209;-91
2021/11/16 01:44:49;;;;;;;25.55;17.27;;;9.80;99.90;;;;;;5018605;28;20542;-92
2021/11/16 01:47:18;;;;;;;23.17;18.02;;;9.80;99.90;;;;;;5018088;28;20289;-92
2021/11/16 01:49:47;;;;;;;23.02;17.50;;;9.80;99.90;;;;;;5019437;28;20201;-91
2021/11/16 01:52:15;;;;;;;25.75;17.70;;;9.90;99.90;;;;;;5024564;28;20320;-92
2021/11/16 01:54:43;;;;;;;24.95;17.60;;;9.80;99.90;;;;;;5012633;28;20291;-89
2021/11/16 01:57:11;;;;;;;24.50;17.63;;;9.80;99.90;;;;;;5017257;28;20205;-89
2021/11/16 01:59:39;;;;;;;23.40;18.20;;;9.90;99.90;;;;;;5011752;28;20498;-90
2021/11/16 02:02:07;;;;;;;26.58;18.95;;;9.80;99.90;;;;;;5005147;28;20486;-89
2021/11/16 02:04:35;;;;;;;28.55;18.75;;;9.90;99.90;;;;;;5019423;28;20209;-89
2021/11/16 02:07:03;;;;;;;22.25;16.48;;;9.90;99.90;;;;;;5019394;28;20210;-90
2021/11/16 02:09:30;;;;;;;22.25;17.00;;;9.90;99.90;;;;;;5015939;28;20522;-89
2021/11/16 02:12:00;;;;;;;27.77;18.38;;;9.90;99.90;;;;;;5016277;28;20322;-89
2021/11/16 02:14:27;;;;;;;22.33;17.23;;;9.90;99.90;;;;;;5017092;28;20206;-89
2021/11/16 02:16:55;;;;;;;23.55;16.95;;;9.90;99.90;;;;;;5013523;28;20211;-89
2021/11/16 02:19:23;;;;;;;22.50;17.02;;;9.90;99.90;;;;;;5017664;28;20233;-89
2021/11/16 02:21:51;;;;;;;22.45;17.25;;;9.90;99.90;;;;;;5011243;28;20303;-90
2021/11/16 02:24:18;;;;;;;23.02;17.40;;;9.90;99.90;;;;;;5012733;28;20207;-93
2021/11/16 02:26:45;;;;;;;26.25;18.88;;;9.90;99.90;;;;;;5019324;28;20202;-91
2021/11/16 02:29:13;;;;;;;25.45;18.40;;;9.90;99.90;;;;;;5020956;28;20261;-88
2021/11/16 02:31:40;;;;;;;26.73;18.15;;;9.90;99.90;;;;;;5011173;28;20219;-91
2021/11/16 02:34:08;;;;;;;25.50;19.10;;;9.90;99.90;;;;;;4999469;28;20216;-90
2021/11/16 02:36:36;;;;;;;23.35;17.33;;;9.90;99.90;;;;;;5011913;28;20205;-90
2021/11/16 02:39:08;;;;;;;25.30;19.13;;;9.90;99.90;;;;;;5016588;28;20214;-89
2021/11/16 02:41:37;;;;;;;28.13;17.90;;;9.90;99.90;;;;;;5018558;28;20224;-91
2021/11/16 02:44:06;;;;;;;27.45;19.70;;;9.90;99.90;;;;;;5017596;28;20604;-88
2021/11/16 02:46:34;;;;;;;24.60;18.08;;;9.80;99.90;;;;;;5019144;28;20216;-87
2021/11/16 02:49:01;;;;;;;24.98;18.05;;;9.80;99.90;;;;;;5021260;28;20206;-88
2021/11/16 02:51:34;;;;;;;24.13;19.15;;;9.80;99.90;;;;;;5022725;28;20233;-88
2021/11/16 02:54:02;;;;;;;26.02;18.75;;;9.80;99.90;;;;;;5015742;28;20300;-90
2021/11/16 02:56:32;;;;;;;28.10;19.23;;;9.90;99.90;;;;;;5022107;28;20576;-89
2021/11/16 02:58:59;;;;;;;25.83;18.08;;;9.80;99.90;;;;;;5017963;28;20293;-91
2021/11/16 03:01:26;;;;;;;22.90;18.77;;;9.80;99.90;;;;;;5021312;28;20787;-88
2021/11/16 03:03:53;;;;;;;23.90;17.15;;;9.80;99.90;;;;;;5018261;28;20225;-87
2021/11/16 03:06:20;;;;;;;27.15;19.08;;;9.80;99.90;;;;;;5021389;28;20212;-89
2021/11/16 03:08:47;;;;;;;26.02;19.02;;;9.80;99.90;;;;;;5018561;28;20283;-88
2021/11/16 03:11:15;;;;;;;28.23;19.00;;;9.80;99.90;;;;;;5020489;28;20241;-88
2021/11/16 03:13:45;;;;;;;29.07;19.43;;;9.80;99.90;;;;;;5018484;28;20264;-90
2021/11/16 03:16:15;;;;;;;28.93;19.43;;;9.80;99.90;;;;;;5016593;28;20461;-90
2021/11/16 03:18:45;;;;;;;28.40;19.65;;;9.80;99.90;;;;;;5019314;28;20453;-89
2021/11/16 03:21:13;;;;;;;23.00;17.17;;;9.80;99.90;;;;;;5018792;28;20217;-89
2021/11/16 03:23:42;;;;;;;30.30;21.20;;;9.80;99.90;;;;;;5021385;28;20210;-90
2021/11/16 03:26:11;;;;;;;25.75;19.30;;;9.80;99.90;;;;;;5021523;28;20587;-89
2021/11/16 03:28:41;;;;;;;27.83;18.58;;;9.80;99.90;;;;;;5021537;28;20689;-91
2021/11/16 03:31:19;;;;;;;27.30;19.33;;;9.80;99.90;;;;;;5026068;28;20221;-91
2021/11/16 03:33:48;;;;;;;31.35;20.25;;;9.80;99.90;;;;;;5021886;28;20568;-89
2021/11/16 03:36:15;;;;;;;30.15;19.38;;;9.80;99.90;;;;;;5017155;28;20217;-90
2021/11/16 03:38:44;;;;;;;31.38;18.65;;;9.80;99.90;;;;;;5021136;28;20201;-90
2021/11/16 03:41:12;;;;;;;27.88;18.75;;;9.80;99.90;;;;;;5022860;28;20567;-89
2021/11/16 03:43:40;;;;;;;26.35;19.63;;;9.80;99.90;;;;;;5012714;28;20202;-87
2021/11/16 03:46:09;;;;;;;26.05;19.00;;;9.70;99.90;;;;;;5019037;28;20290;-89
2021/11/16 03:48:37;;;;;;;29.40;20.63;;;9.70;99.90;;;;;;5019690;28;20567;-89
2021/11/16 03:51:05;;;;;;;28.88;18.70;;;9.70;99.90;;;;;;5012452;28;20280;-93
2021/11/16 03:53:34;;;;;;;23.17;17.38;;;9.70;99.90;;;;;;5022179;28;20209;-89
2021/11/16 03:56:02;;;;;;;22.75;18.15;;;9.70;99.90;;;;;;5018401;28;20234;-89
2021/11/16 03:58:29;;;;;;;29.08;18.48;;;9.70;99.90;;;;;;5015265;28;20484;-89
2021/11/16 04:00:58;;;;;;;26.02;18.58;;;9.70;99.90;;;;;;5013684;28;20753;-89
2021/11/16 04:03:31;;;;;;;24.48;16.98;;;9.60;99.90;;;;;;5010823;28;20648;-89
2021/11/16 04:05:59;;;;;;;24.35;17.63;;;9.70;99.90;;;;;;5019717;28;20275;-89
2021/11/16 04:08:26;;;;;;;31.77;20.77;;;9.70;99.90;;;;;;5023655;28;20747;-90
2021/11/16 04:10:53;;;;;;;30.63;19.70;;;9.60;99.90;;;;;;5016892;28;20308;-89
2021/11/16 04:13:20;;;;;;;25.75;19.30;;;9.60;99.90;;;;;;5018860;28;20655;-89
2021/11/16 04:15:49;;;;;;;31.02;20.48;;;9.60;99.90;;;;;;5023540;28;20206;-92
2021/11/16 04:18:17;;;;;;;28.15;18.45;;;9.60;99.90;;;;;;5013733;28;20242;-89
2021/11/16 04:20:47;;;;;;;25.42;19.50;;;9.60;99.90;;;;;;5027358;28;20238;-90
2021/11/16 04:23:16;;;;;;;34.42;24.73;;;9.60;99.90;;;;;;5015585;28;20298;-89
2021/11/16 04:25:45;;;;;;;44.40;25.60;;;9.60;99.90;;;;;;5017582;28;20605;-89
2021/11/16 04:28:12;;;;;;;28.70;20.25;;;9.50;99.90;;;;;;5019067;28;20228;-89
2021/11/16 04:30:40;;;;;;;28.17;20.48;;;9.60;99.90;;;;;;5008141;28;20617;-89
2021/11/16 04:33:08;;;;;;;26.38;19.02;;;9.50;99.90;;;;;;5014090;28;20680;-89
2021/11/16 04:35:36;;;;;;;29.02;19.70;;;9.50;99.90;;;;;;5017508;28;20208;-89
2021/11/16 04:38:06;;;;;;;33.83;19.20;;;9.50;99.90;;;;;;5016843;28;20208;-89
2021/11/16 04:40:36;;;;;;;32.08;21.88;;;9.50;99.90;;;;;;5021571;28;20217;-89
2021/11/16 04:43:07;;;;;;;27.75;19.48;;;9.50;99.90;;;;;;5013119;28;20205;-90
2021/11/16 04:45:35;;;;;;;28.63;20.10;;;9.40;99.90;;;;;;5021999;28;20212;-90
2021/11/16 04:48:05;;;;;;;31.77;20.80;;;9.40;99.90;;;;;;5014381;28;20227;-89
2021/11/16 04:50:44;;;;;;;31.83;19.88;;;9.40;99.90;;;;;;5021718;28;20208;-90
2021/11/16 04:53:26;;;;;;;29.25;19.50;;;9.40;99.90;;;;;;5017263;28;20574;-92
2021/11/16 04:59:28;;;;;;;28.83;20.67;;;9.40;99.90;;;;;;5017264;28;20212;-89
2021/11/16 05:04:12;;;;;;;32.75;21.65;;;9.30;99.90;;;;;;5017266;28;20633;-91
2021/11/16 05:06:40;;;;;;;28.20;19.70;;;9.30;99.90;;;;;;5011163;28;20213;-92
2021/11/16 05:09:08;;;;;;;31.15;20.40;;;9.30;99.90;;;;;;5030290;28;20697;-89
2021/11/16 05:11:35;;;;;;;37.08;21.10;;;9.30;99.90;;;;;;5017415;28;20642;-94
2021/11/16 05:14:05;;;;;;;28.35;20.02;;;9.20;99.90;;;;;;5016717;28;20227;-90
2021/11/16 05:16:33;;;;;;;26.40;19.95;;;9.20;99.90;;;;;;5018608;28;20222;-90
2021/11/16 05:19:00;;;;;;;31.92;21.85;;;9.20;99.90;;;;;;5020821;28;20201;-91
2021/11/16 05:21:28;;;;;;;32.40;19.10;;;9.20;99.90;;;;;;5018006;28;20650;-90
2021/11/16 05:24:00;;;;;;;29.30;19.40;;;9.20;99.90;;;;;;5017504;28;20279;-90
2021/11/16 05:26:30;;;;;;;37.92;22.52;;;9.20;99.90;;;;;;5018201;28;21003;-90
2021/11/16 05:28:59;;;;;;;31.83;19.77;;;9.20;99.90;;;;;;5015461;28;20227;-91
2021/11/16 05:31:28;;;;;;;27.00;19.23;;;9.20;99.90;;;;;;5015110;28;20762;-92
2021/11/16 05:33:58;;;;;;;30.80;19.63;;;9.20;99.90;;;;;;5014163;28;20242;-91
2021/11/16 05:36:25;;;;;;;33.72;19.15;;;9.20;99.90;;;;;;5017224;28;20535;-92
2021/11/16 05:38:53;;;;;;;27.58;18.90;;;9.20;99.90;;;;;;5019334;28;20208;-91
2021/11/16 05:41:21;;;;;;;34.53;20.20;;;9.10;99.90;;;;;;5013385;28;20287;-91
2021/11/16 05:43:50;;;;;;;29.80;20.90;;;9.10;99.90;;;;;;5015182;28;20243;-91
2021/11/16 05:46:20;;;;;;;30.70;19.25;;;9.10;99.90;;;;;;5017478;28;20239;-90
2021/11/16 05:48:48;;;;;;;33.20;22.30;;;9.20;99.90;;;;;;5017462;28;20209;-90
2021/11/16 05:51:17;;;;;;;32.50;19.10;;;9.10;99.90;;;;;;5019296;28;20211;-90
2021/11/16 05:53:52;;;;;;;29.60;18.90;;;9.10;99.90;;;;;;5012859;28;20584;-92
2021/11/16 05:56:22;;;;;;;33.33;20.38;;;9.10;99.90;;;;;;5016846;28;20673;-91
2021/11/16 05:58:54;;;;;;;37.33;21.85;;;9.10;99.90;;;;;;5016283;28;20281;-92
2021/11/16 06:01:22;;;;;;;30.38;21.23;;;9.10;99.90;;;;;;5012449;28;20310;-90
2021/11/16 06:03:52;;;;;;;34.15;20.55;;;9.10;99.90;;;;;;5018087;28;20414;-90
2021/11/16 06:06:21;;;;;;;34.60;20.85;;;9.10;99.90;;;;;;5018637;28;20214;-89
2021/11/16 06:08:50;;;;;;;28.75;19.33;;;9.10;99.90;;;;;;5018372;28;20556;-92
2021/11/16 06:11:18;;;;;;;34.85;22.02;;;9.10;99.90;;;;;;5012941;28;20733;-90
2021/11/16 06:13:47;;;;;;;32.42;22.35;;;9.10;99.90;;;;;;5013639;28;20235;-91
2021/11/16 06:16:16;;;;;;;32.92;19.65;;;9.00;99.90;;;;;;5015997;28;20208;-91
2021/11/16 06:18:49;;;;;;;29.08;20.10;;;9.00;99.90;;;;;;5019151;28;20253;-92
2021/11/16 06:21:17;;;;;;;32.50;20.67;;;9.00;99.90;;;;;;5016502;28;20525;-92
2021/11/16 06:23:45;;;;;;;35.58;20.58;;;9.00;99.90;;;;;;5031456;28;20282;-92
2021/11/16 06:26:12;;;;;;;44.05;26.42;;;9.00;99.90;;;;;;5013214;28;20212;-91
2021/11/16 06:28:40;;;;;;;55.38;35.75;;;9.00;99.90;;;;;;5017603;28;20232;-91
2021/11/16 06:31:07;;;;;;;51.67;33.17;;;9.00;99.90;;;;;;5019809;28;20206;-92
2021/11/16 06:33:36;;;;;;;33.80;20.38;;;9.00;99.90;;;;;;5016750;28;20231;-92
2021/11/16 06:36:05;;;;;;;31.77;22.10;;;9.00;99.90;;;;;;5022903;28;20208;-91
2021/11/16 06:38:32;;;;;;;33.30;19.17;;;9.00;99.90;;;;;;5016829;28;20632;-91
2021/11/16 06:41:00;;;;;;;31.90;20.58;;;9.00;99.90;;;;;;5019771;28;20651;-91
2021/11/16 06:43:29;;;;;;;31.95;20.45;;;9.00;99.90;;;;;;5015136;28;20212;-93
2021/11/16 06:45:58;;;;;;;32.70;21.50;;;9.00;99.90;;;;;;5018764;28;20206;-90
2021/11/16 06:48:26;;;;;;;31.33;20.15;;;9.00;99.90;;;;;;5015381;28;20204;-91
2021/11/16 06:50:55;;;;;;;29.00;19.00;;;9.00;99.90;;;;;;5024736;28;20217;-92
2021/11/16 06:53:27;;;;;;;31.73;19.90;;;9.00;99.90;;;;;;5023416;28;20698;-91
2021/11/16 06:55:55;;;;;;;33.55;21.25;;;9.00;99.90;;;;;;5016169;28;20234;-91
2021/11/16 06:58:23;;;;;;;42.67;22.70;;;9.00;99.90;;;;;;5016418;28;20258;-92
2021/11/16 07:00:52;;;;;;;33.47;22.52;;;8.90;99.90;;;;;;5018279;28;20595;-92
2021/11/16 07:03:20;;;;;;;35.28;22.63;;;8.90;99.90;;;;;;5015837;28;20208;-91
2021/11/16 07:05:51;;;;;;;33.72;23.88;;;8.90;99.90;;;;;;5012793;28;20607;-92
2021/11/16 07:08:31;;;;;;;34.08;23.23;;;8.90;99.90;;;;;;5021418;28;20702;-91
2021/11/16 07:11:04;;;;;;;38.85;23.48;;;8.90;99.90;;;;;;5024269;28;20211;-92
2021/11/16 07:13:31;;;;;;;35.17;22.90;;;8.90;99.90;;;;;;5010857;28;20254;-91
2021/11/16 07:15:58;;;;;;;37.85;22.58;;;8.90;99.90;;;;;;5019988;28;20218;-91
2021/11/16 07:18:26;;;;;;;35.60;22.58;;;8.90;99.90;;;;;;5022824;28;20387;-92
2021/11/16 07:21:02;;;;;;;31.85;21.75;;;8.90;99.90;;;;;;5020468;28;20597;-90
2021/11/16 07:23:31;;;;;;;41.38;22.98;;;8.90;99.90;;;;;;5016322;28;20207;-91
2021/11/16 07:25:59;;;;;;;38.40;24.13;;;8.90;99.90;;;;;;5022894;28;20210;-91
2021/11/16 07:28:26;;;;;;;36.55;22.90;;;8.90;99.90;;;;;;5012593;28;20233;-90
2021/11/16 07:30:54;;;;;;;39.15;24.60;;;8.90;99.90;;;;;;5014626;28;20220;-92
2021/11/16 07:33:25;;;;;;;37.85;23.45;;;8.90;99.90;;;;;;5016786;28;20637;-92
2021/11/16 07:35:52;;;;;;;39.65;25.52;;;8.90;99.90;;;;;;5011079;28;20211;-90
2021/11/16 07:38:23;;;;;;;41.83;25.27;;;8.90;99.90;;;;;;5016870;28;20198;-91
2021/11/16 07:40:54;;;;;;;38.13;24.90;;;8.90;99.90;;;;;;5016206;28;20586;-91
2021/11/16 07:43:23;;;;;;;39.30;23.67;;;8.90;99.90;;;;;;5015713;28;20207;-90
2021/11/16 07:45:53;;;;;;;39.13;26.20;;;8.80;99.90;;;;;;5010960;28;20230;-90
2021/11/16 07:48:24;;;;;;;41.08;26.50;;;8.80;99.90;;;;;;5015825;28;20215;-92
2021/11/16 07:50:54;;;;;;;45.55;26.58;;;8.80;99.90;;;;;;5018129;28;20205;-92
2021/11/16 07:53:24;;;;;;;42.83;26.80;;;8.80;99.90;;;;;;5020212;28;20230;-91
2021/11/16 07:56:09;;;;;;;42.50;26.60;;;8.80;99.90;;;;;;5014520;28;20586;-89
2021/11/16 07:58:38;;;;;;;36.85;23.63;;;8.80;99.90;;;;;;5014355;28;20204;-90
2021/11/16 08:01:13;;;;;;;40.05;25.52;;;8.80;99.90;;;;;;5016108;28;20246;-91
2021/11/16 08:03:49;;;;;;;39.80;23.95;;;8.80;99.90;;;;;;5015911;28;20240;-90
2021/11/16 08:06:22;;;;;;;42.17;26.10;;;8.80;99.90;;;;;;5020618;28;20204;-91
2021/11/16 08:08:55;;;;;;;43.15;24.40;;;8.90;99.90;;;;;;5016355;28;20208;-90
2021/11/16 08:11:28;;;;;;;37.75;24.70;;;8.90;99.90;;;;;;5018601;28;20208;-93
2021/11/16 08:13:59;;;;;;;39.20;24.00;;;8.90;99.90;;;;;;5017453;28;20272;-90
2021/11/16 08:16:28;;;;;;;44.13;25.13;;;8.90;99.90;;;;;;5017634;28;20192;-93
2021/11/16 08:18:59;;;;;;;38.60;25.13;;;8.90;99.90;;;;;;5010100;28;20207;-91
2021/11/16 08:21:27;;;;;;;42.53;24.70;;;8.90;99.90;;;;;;5026782;28;20210;-90
2021/11/16 08:23:57;;;;;;;37.33;22.40;;;8.90;99.90;;;;;;5017486;28;20205;-91
2021/11/16 08:26:38;;;;;;;34.60;23.73;;;8.90;99.90;;;;;;5015032;28;20239;-90
2021/11/16 08:29:07;;;;;;;40.42;25.65;;;8.90;99.90;;;;;;5018714;28;20223;-91
2021/11/16 08:31:41;;;;;;;39.13;23.10;;;8.90;99.90;;;;;;5011570;28;20197;-91
2021/11/16 08:34:09;;;;;;;42.03;25.95;;;9.00;99.90;;;;;;5009274;28;20233;-91
2021/11/16 08:36:45;;;;;;;49.63;30.13;;;9.00;99.90;;;;;;5016402;28;20659;-92
2021/11/16 08:39:13;;;;;;;52.33;33.63;;;9.00;99.90;;;;;;5015105;28;20229;-90
2021/11/16 08:41:42;;;;;;;59.20;34.30;;;9.00;99.90;;;;;;5013555;28;20567;-93
2021/11/16 08:44:14;;;;;;;37.45;25.45;;;9.00;99.90;;;;;;5014085;28;20234;-92
2021/11/16 08:46:42;;;;;;;39.03;23.52;;;9.10;99.90;;;;;;5016088;28;20548;-91
2021/11/16 08:49:20;;;;;;;43.67;27.02;;;9.10;99.90;;;;;;5021775;28;20657;-92
2021/11/16 08:51:48;;;;;;;41.80;23.95;;;9.10;99.90;;;;;;5010821;28;20227;-91
2021/11/16 08:54:25;;;;;;;42.03;25.50;;;9.10;99.90;;;;;;5015206;28;20219;-92
2021/11/16 08:56:54;;;;;;;41.65;25.55;;;9.10;99.90;;;;;;5021542;28;20207;-91
2021/11/16 08:59:22;;;;;;;39.33;24.05;;;9.10;99.90;;;;;;5012966;28;20195;-90
2021/11/16 09:01:57;;;;;;;40.97;25.80;;;9.20;99.90;;;;;;5014242;28;21013;-90
2021/11/16 09:04:27;;;;;;;45.58;24.48;;;9.20;99.90;;;;;;5010958;28;20707;-91
2021/11/16 09:06:58;;;;;;;34.80;22.40;;;9.20;99.90;;;;;;5016233;28;20206;-92
2021/11/16 09:09:27;;;;;;;41.75;22.55;;;9.20;99.90;;;;;;5016679;28;20220;-90
2021/11/16 09:12:04;;;;;;;41.58;23.27;;;9.20;99.90;;;;;;5014908;28;20238;-91
2021/11/16 09:14:33;;;;;;;35.45;22.73;;;9.20;99.90;;;;;;5017860;28;20221;-90
2021/11/16 09:17:11;;;;;;;36.33;20.88;;;9.20;99.90;;;;;;5019311;28;20204;-92
2021/11/16 09:19:38;;;;;;;40.30;24.20;;;9.20;99.90;;;;;;5019688;28;20212;-92
2021/11/16 09:22:05;;;;;;;38.92;22.80;;;9.20;99.90;;;;;;5013816;28;20209;-91
2021/11/16 09:24:38;;;;;;;37.80;21.63;;;9.20;99.90;;;;;;5013266;28;20223;-89
2021/11/16 09:27:23;;;;;;;37.42;22.67;;;9.20;99.90;;;;;;5011421;28;20200;-90
2021/11/16 09:29:52;;;;;;;39.85;23.25;;;9.20;99.90;;;;;;5017461;28;20296;-91
2021/11/16 09:32:20;;;;;;;33.03;20.45;;;9.20;99.90;;;;;;5012128;28;20652;-90
2021/11/16 09:34:52;;;;;;;39.13;23.00;;;9.20;99.90;;;;;;5014136;28;20223;-91
2021/11/16 09:37:22;;;;;;;38.10;21.70;;;9.20;99.90;;;;;;5021161;28;20203;-91
2021/11/16 09:39:52;;;;;;;38.28;21.45;;;9.20;99.90;;;;;;5015329;28;20271;-92
2021/11/16 09:42:28;;;;;;;37.42;22.88;;;9.20;99.90;;;;;;5016922;28;20663;-90
2021/11/16 09:44:59;;;;;;;38.92;21.05;;;9.20;99.90;;;;;;5011541;28;20786;-91
2021/11/16 09:47:30;;;;;;;34.08;20.52;;;9.20;99.90;;;;;;5021763;28;20197;-91
2021/11/16 09:50:00;;;;;;;31.85;19.77;;;9.20;99.90;;;;;;5015218;28;20221;-91
2021/11/16 09:52:31;;;;;;;37.88;21.50;;;9.30;99.90;;;;;;5018556;28;20612;-91
2021/11/16 09:55:01;;;;;;;42.72;22.10;;;9.30;99.90;;;;;;5023341;28;20766;-90
2021/11/16 09:57:34;;;;;;;96.35;51.78;;;9.30;99.90;;;;;;5018078;28;20204;-92
2021/11/16 10:00:08;;;;;;;65.70;39.25;;;9.30;99.90;;;;;;5014944;28;20332;-91
2021/11/16 10:02:37;;;;;;;46.47;29.23;;;9.30;99.90;;;;;;5008973;28;20231;-90
2021/11/16 10:05:07;;;;;;;37.70;22.00;;;9.40;99.90;;;;;;5008327;28;20233;-91
2021/11/16 10:07:36;;;;;;;35.63;22.95;;;9.40;99.90;;;;;;5012920;28;20273;-91
2021/11/16 10:10:05;;;;;;;45.92;23.23;;;9.40;99.90;;;;;;5022985;28;20234;-92
2021/11/16 10:12:41;;;;;;;35.38;21.73;;;9.50;99.90;;;;;;5010441;28;20196;-91
2021/11/16 10:15:11;;;;;;;37.85;21.63;;;9.50;99.90;;;;;;5008766;28;20231;-91
2021/11/16 10:17:39;;;;;;;45.28;23.67;;;9.50;99.90;;;;;;5016022;28;20206;-91
2021/11/16 10:20:09;;;;;;;37.58;22.70;;;9.50;99.90;;;;;;5025346;28;20259;-91
2021/11/16 10:22:37;;;;;;;36.97;24.20;;;9.60;99.90;;;;;;5022910;28;20562;-93
2021/11/16 10:25:14;;;;;;;39.38;22.67;;;9.60;99.90;;;;;;5022411;28;20232;-91
2021/11/16 10:27:44;;;;;;;36.28;21.05;;;9.60;99.90;;;;;;5020421;28;20217;-93
2021/11/16 10:30:21;;;;;;;38.22;22.70;;;9.60;99.90;;;;;;5017905;28;20214;-91
2021/11/16 10:33:08;;;;;;;42.25;23.10;;;9.70;99.90;;;;;;5008941;28;20188;-91
2021/11/16 10:35:37;;;;;;;38.92;21.48;;;9.70;99.90;;;;;;5007227;28;20209;-91
2021/11/16 10:38:08;;;;;;;33.83;21.48;;;9.70;99.90;;;;;;5012463;28;20261;-91
2021/11/16 10:40:37;;;;;;;37.85;20.60;;;9.70;99.90;;;;;;5012500;28;20239;-93
2021/11/16 10:43:08;;;;;;;30.70;19.75;;;9.80;99.90;;;;;;5014371;28;20198;-91
2021/11/16 10:45:39;;;;;;;31.75;20.15;;;9.80;99.90;;;;;;5014536;28;20289;-90
2021/11/16 10:48:10;;;;;;;35.40;20.33;;;9.80;99.90;;;;;;5008780;28;20209;-90
2021/11/16 10:50:39;;;;;;;31.10;18.75;;;9.80;99.90;;;;;;5015598;28;20209;-90
2021/11/16 10:53:09;;;;;;;36.35;19.73;;;9.80;99.90;;;;;;5013631;28;20202;-92
2021/11/16 10:55:44;;;;;;;35.22;20.63;;;9.80;99.90;;;;;;5007740;28;20225;-92
2021/11/16 10:58:15;;;;;;;48.35;21.45;;;9.90;99.90;;;;;;5005552;28;20235;-91
2021/11/16 11:00:51;;;;;;;32.13;20.05;;;9.90;99.90;;;;;;5011357;28;20554;-90
2021/11/16 11:03:54;;;;;;;35.35;21.60;;;9.90;99.90;;;;;;5006447;28;20210;-92
2021/11/16 11:06:25;;;;;;;33.40;20.58;;;9.90;99.90;;;;;;5010975;28;20268;-91
2021/11/16 11:08:54;;;;;;;32.53;21.55;;;9.90;99.90;;;;;;5018408;28;20210;-92
2021/11/16 11:11:26;;;;;;;33.33;20.52;;;10.00;99.90;;;;;;5013683;28;20205;-92
2021/11/16 11:13:59;;;;;;;29.15;19.88;;;9.90;99.90;;;;;;5016945;28;20560;-94
2021/11/16 11:16:27;;;;;;;29.80;18.17;;;9.90;99.90;;;;;;5016902;28;20240;-92
2021/11/16 11:18:55;;;;;;;29.10;19.38;;;10.00;99.90;;;;;;5013556;28;20288;-90
2021/11/16 11:21:34;;;;;;;29.00;19.98;;;9.90;99.90;;;;;;5014273;28;20201;-91
2021/11/16 11:24:07;;;;;;;37.92;20.00;;;9.90;99.90;;;;;;5016668;28;20625;-92
2021/11/16 11:26:39;;;;;;;34.50;20.35;;;10.00;99.90;;;;;;5013897;28;20225;-92
2021/11/16 11:29:21;;;;;;;33.72;18.73;;;10.00;99.90;;;;;;5014385;28;20218;-92
2021/11/16 11:31:52;;;;;;;33.45;19.30;;;10.00;99.90;;;;;;5016727;28;20275;-92
2021/11/16 11:34:20;;;;;;;34.03;20.83;;;10.00;99.90;;;;;;5011802;28;20227;-92
2021/11/16 11:36:48;;;;;;;29.20;18.58;;;10.00;99.90;;;;;;5014850;28;20652;-92
2021/11/16 11:39:23;;;;;;;28.90;18.33;;;10.00;99.90;;;;;;5016368;28;20588;-90
2021/11/16 11:41:54;;;;;;;33.70;19.20;;;10.00;99.90;;;;;;5016073;28;20215;-91
2021/11/16 11:44:25;;;;;;;32.17;19.50;;;10.00;99.90;;;;;;5018661;28;20292;-94
2021/11/16 11:46:57;;;;;;;28.25;17.25;;;10.00;99.90;;;;;;5019399;28;20206;-91
2021/11/16 11:49:26;;;;;;;25.58;18.05;;;10.00;99.90;;;;;;5018011;28;20217;-91
2021/11/16 11:51:54;;;;;;;30.30;19.13;;;10.00;99.90;;;;;;5014365;28;20212;-90
2021/11/16 11:54:22;;;;;;;30.05;19.70;;;9.90;99.90;;;;;;5019012;28;20236;-94
2021/11/16 11:56:54;;;;;;;32.15;19.70;;;9.90;99.90;;;;;;5012114;28;20201;-90
2021/11/16 11:59:24;;;;;;;34.00;18.73;;;9.90;99.90;;;;;;5012349;28;20618;-92
2021/11/16 12:01:52;;;;;;;29.58;18.98;;;9.90;99.90;;;;;;5009520;28;20755;-92
2021/11/16 12:04:22;;;;;;;29.75;17.67;;;9.90;99.90;;;;;;5013074;28;20215;-90
2021/11/16 12:06:54;;;;;;;30.42;19.88;;;9.90;99.90;;;;;;5019277;28;20210;-92
2021/11/16 12:09:22;;;;;;;28.27;19.55;;;9.90;99.90;;;;;;5018483;28;20208;-91
2021/11/16 12:11:51;;;;;;;29.73;18.60;;;9.90;99.90;;;;;;5010286;28;20212;-91
2021/11/16 12:18:14;;;;;;;25.60;17.42;;;9.90;99.90;;;;;;5014514;28;20284;-90
2021/11/16 12:20:46;;;;;;;27.08;17.13;;;9.90;99.90;;;;;;5018892;28;20201;-90
2021/11/16 12:23:14;;;;;;;27.70;17.60;;;9.90;99.90;;;;;;5013323;28;20194;-89
2021/11/16 12:25:43;;;;;;;28.88;17.02;;;9.90;99.90;;;;;;5010852;28;20687;-91
2021/11/16 12:28:25;;;;;;;31.92;18.60;;;9.80;99.90;;;;;;5011876;28;20236;-89
2021/11/16 12:30:55;;;;;;;38.33;21.30;;;9.80;99.90;;;;;;5009779;28;20210;-93
2021/11/16 12:33:45;;;;;;;30.90;19.30;;;9.90;99.90;;;;;;5014706;28;20292;-90
2021/11/16 12:36:14;;;;;;;30.25;17.88;;;9.80;99.90;;;;;;5018383;28;20290;-91
2021/11/16 12:38:45;;;;;;;33.22;19.45;;;9.90;99.90;;;;;;5013983;28;20213;-91
2021/11/16 12:41:34;;;;;;;27.73;17.40;;;9.80;99.90;;;;;;5012086;28;20548;-92
2021/11/16 12:44:04;;;;;;;28.17;17.20;;;9.90;99.90;;;;;;5015147;28;20205;-90
2021/11/16 12:46:36;;;;;;;34.45;19.40;;;9.90;99.90;;;;;;5017142;28;20205;-90
2021/11/16 12:49:28;;;;;;;30.70;18.15;;;9.90;99.90;;;;;;5017019;28;20571;-91
2021/11/16 12:51:58;;;;;;;28.40;18.88;;;9.90;99.90;;;;;;5014121;28;20227;-91
2021/11/16 12:54:28;;;;;;;28.73;18.08;;;9.90;99.90;;;;;;5022614;28;20222;-91
2021/11/16 12:57:16;;;;;;;26.88;17.58;;;9.90;99.90;;;;;;5018755;28;20204;-91
2021/11/16 13:00:01;;;;;;;27.52;17.30;;;9.90;99.90;;;;;;5014242;28;20197;-90